createdAt,value
2017-10-28T00:01:07.200Z,19.60
2017-10-28T00:03:34.785Z,21.60
2017-10-28T00:06:02.234Z,24.93
2017-10-28T00:08:29.710Z,23.17
2017-10-28T00:10:57.483Z,23.97
2017-10-28T00:13:25.005Z,23.13
2017-10-28T00:15:53.241Z,24.70
2017-10-28T00:18:21.567Z,22.03
2017-10-28T00:20:49.035Z,23.40
2017-10-28T00:23:16.664Z,23.70
2017-10-28T00:25:44.185Z,27.73
2017-10-28T00:28:12.440Z,18.77
2017-10-28T00:30:45.635Z,22.83
2017-10-28T00:33:19.509Z,23.40
2017-10-28T00:35:53.381Z,25.27
2017-10-28T00:38:20.856Z,24.20
2017-10-28T00:40:49.084Z,15.87
2017-10-28T00:43:16.653Z,15.33
2017-10-28T00:45:44.128Z,12.43
2017-10-28T00:48:11.569Z,8.17
2017-10-28T00:50:39.145Z,17.17
2017-10-28T00:53:06.610Z,24.90
2017-10-28T00:55:34.076Z,23.93
2017-10-28T00:58:01.991Z,23.30
2017-10-28T01:00:29.474Z,26.70
2017-10-28T01:02:56.932Z,21.77
2017-10-28T01:05:24.854Z,21.80
2017-10-28T01:07:53.092Z,27.57
2017-10-28T01:10:20.554Z,25.00
2017-10-28T01:12:49.239Z,23.00
2017-10-28T01:15:16.716Z,22.50
2017-10-28T01:17:44.183Z,27.20
2017-10-28T01:20:12.507Z,24.30
2017-10-28T01:22:40.015Z,22.60
2017-10-28T01:25:07.513Z,26.37
2017-10-28T01:27:35.074Z,24.17
2017-10-28T01:30:02.527Z,30.60
2017-10-28T01:32:30.014Z,24.97
2017-10-28T01:34:57.587Z,24.87
2017-10-28T01:37:25.033Z,29.57
2017-10-28T01:39:52.511Z,25.97
2017-10-28T01:42:20.055Z,27.53
2017-10-28T01:44:47.512Z,22.60
2017-10-28T01:47:15.855Z,27.00
2017-10-28T01:49:43.469Z,23.17
2017-10-28T01:52:10.948Z,24.17
2017-10-28T01:54:38.419Z,24.00
2017-10-28T01:57:06.004Z,25.87
2017-10-28T01:59:33.453Z,14.63
2017-10-28T02:02:00.927Z,22.70
2017-10-28T02:04:28.472Z,37.93
2017-10-28T02:06:56.730Z,24.30
2017-10-28T02:09:24.295Z,22.70
2017-10-28T02:11:51.886Z,27.57
2017-10-28T02:14:19.471Z,27.00
2017-10-28T02:16:46.923Z,25.43
2017-10-28T02:19:15.194Z,27.30
2017-10-28T02:21:42.755Z,26.03
2017-10-28T02:24:11.002Z,28.03
2017-10-28T02:26:39.300Z,22.60
2017-10-28T02:29:06.861Z,25.30
2017-10-28T02:31:34.419Z,30.90
2017-10-28T02:34:01.947Z,26.77
2017-10-28T02:36:29.457Z,28.30
2017-10-28T02:38:56.909Z,25.67
2017-10-28T02:41:24.382Z,25.40
2017-10-28T02:43:51.901Z,26.83
2017-10-28T02:46:20.224Z,30.90
2017-10-28T02:48:47.700Z,24.70
2017-10-28T02:51:15.958Z,30.27
2017-10-28T02:53:43.555Z,26.73
2017-10-28T02:56:11.051Z,32.47
2017-10-28T02:58:38.524Z,39.73
2017-10-28T03:01:06.146Z,27.43
2017-10-28T03:03:34.406Z,23.90
2017-10-28T03:06:02.001Z,27.97
2017-10-28T03:08:29.478Z,27.73
2017-10-28T03:10:56.959Z,25.60
2017-10-28T03:13:24.478Z,29.70
2017-10-28T03:15:52.845Z,30.83
2017-10-28T03:18:20.329Z,30.17
2017-10-28T03:20:47.794Z,30.83
2017-10-28T03:23:15.353Z,34.77
2017-10-28T03:25:42.829Z,34.60
2017-10-28T03:28:11.093Z,28.50
2017-10-28T03:30:39.526Z,31.83
2017-10-28T03:33:07.766Z,26.07
2017-10-28T03:35:35.219Z,35.03
2017-10-28T03:38:03.890Z,26.87
2017-10-28T03:40:32.149Z,29.07
2017-10-28T03:43:00.530Z,30.00
2017-10-28T03:45:28.425Z,27.67
2017-10-28T03:47:55.967Z,29.80
2017-10-28T03:50:23.421Z,27.47
2017-10-28T03:52:51.318Z,30.00
2017-10-28T03:55:18.823Z,34.80
2017-10-28T03:57:46.307Z,31.20
2017-10-28T04:00:13.879Z,33.20
2017-10-28T04:02:41.365Z,34.77
2017-10-28T04:05:09.007Z,29.73
2017-10-28T04:07:36.911Z,32.00
2017-10-28T04:10:04.392Z,28.37
2017-10-28T04:12:31.846Z,28.93
2017-10-28T04:15:00.182Z,27.67
2017-10-28T04:17:27.688Z,30.20
2017-10-28T04:19:55.915Z,26.17
2017-10-28T04:22:23.469Z,30.07
2017-10-28T04:24:50.995Z,32.43
2017-10-28T04:27:18.454Z,27.13
2017-10-28T04:29:47.145Z,26.50
2017-10-28T04:32:14.714Z,28.07
2017-10-28T04:34:42.168Z,24.60
2017-10-28T04:37:10.493Z,29.00
2017-10-28T04:39:38.750Z,35.00
2017-10-28T04:42:07.101Z,30.87
2017-10-28T04:44:34.685Z,31.20
2017-10-28T04:47:02.167Z,31.13
2017-10-28T04:49:30.406Z,32.40
2017-10-28T04:51:57.994Z,31.67
2017-10-28T04:54:25.482Z,30.00
2017-10-28T04:56:53.706Z,34.90
2017-10-28T04:59:21.627Z,32.00
2017-10-28T05:01:49.859Z,29.10
2017-10-28T05:04:17.324Z,32.30
2017-10-28T05:06:44.885Z,32.20
2017-10-28T05:09:13.109Z,33.97
2017-10-28T05:11:40.758Z,32.03
2017-10-28T05:14:08.349Z,34.03
2017-10-28T05:16:35.922Z,37.33
2017-10-28T05:19:03.379Z,39.63
2017-10-28T05:21:30.943Z,35.67
2017-10-28T05:23:58.407Z,35.70
2017-10-28T05:26:26.032Z,34.50
2017-10-28T05:28:53.961Z,34.10
2017-10-28T05:31:21.414Z,43.43
2017-10-28T05:33:48.900Z,34.60
2017-10-28T05:36:16.485Z,31.27
2017-10-28T05:38:43.965Z,33.63
2017-10-28T05:41:11.435Z,32.53
2017-10-28T05:43:39.008Z,38.30
2017-10-28T05:46:06.591Z,34.50
2017-10-28T05:48:35.016Z,33.43
2017-10-28T05:51:03.337Z,35.50
2017-10-28T05:53:30.813Z,35.10
2017-10-28T05:55:58.279Z,38.03
2017-10-28T05:58:25.887Z,34.77
2017-10-28T06:00:53.355Z,31.13
2017-10-28T06:03:21.608Z,42.83
2017-10-28T06:05:50.147Z,40.23
2017-10-28T06:08:17.610Z,41.10
2017-10-28T06:10:45.101Z,35.87
2017-10-28T06:13:12.672Z,36.10
2017-10-28T06:15:40.177Z,35.03
2017-10-28T06:18:07.661Z,33.97
2017-10-28T06:20:35.619Z,32.70
2017-10-28T06:23:03.856Z,41.47
2017-10-28T06:25:31.336Z,30.50
2017-10-28T06:27:58.928Z,37.43
2017-10-28T06:30:26.391Z,33.57
2017-10-28T06:32:53.845Z,35.10
2017-10-28T06:35:21.401Z,37.10
2017-10-28T06:37:48.886Z,30.60
2017-10-28T06:40:16.340Z,33.87
2017-10-28T06:42:43.930Z,35.40
2017-10-28T06:45:11.438Z,35.50
2017-10-28T06:47:38.916Z,33.40
2017-10-28T06:50:06.510Z,33.70
2017-10-28T06:52:34.012Z,31.80
2017-10-28T06:55:02.262Z,33.10
2017-10-28T06:57:29.810Z,35.40
2017-10-28T06:59:58.050Z,32.67
2017-10-28T07:02:25.518Z,24.63
2017-10-28T07:04:53.079Z,35.57
2017-10-28T07:07:21.315Z,31.77
2017-10-28T07:09:48.781Z,28.00
2017-10-28T07:12:16.323Z,31.57
2017-10-28T07:14:45.479Z,24.67
2017-10-28T07:17:12.961Z,27.30
2017-10-28T07:19:40.559Z,30.93
2017-10-28T07:22:08.003Z,26.50
2017-10-28T07:24:36.377Z,25.87
2017-10-28T07:27:04.282Z,31.50
2017-10-28T07:29:31.769Z,23.10
2017-10-28T07:31:59.435Z,29.90
2017-10-28T07:34:26.995Z,23.17
2017-10-28T07:36:54.475Z,27.63
2017-10-28T07:39:21.944Z,22.10
2017-10-28T07:41:49.582Z,19.20
2017-10-28T07:44:17.083Z,23.73
2017-10-28T07:46:44.661Z,23.93
2017-10-28T07:49:12.314Z,27.37
2017-10-28T07:51:39.917Z,27.10
2017-10-28T07:54:07.564Z,22.43
2017-10-28T07:56:35.122Z,26.27
2017-10-28T07:59:03.364Z,20.63
2017-10-28T08:01:31.433Z,20.20
2017-10-28T08:04:05.299Z,25.43
2017-10-28T08:06:33.755Z,27.50
2017-10-28T08:09:01.435Z,25.10
2017-10-28T08:11:28.935Z,27.23
2017-10-28T08:13:56.713Z,28.37
2017-10-28T08:16:24.203Z,25.67
2017-10-28T08:18:51.702Z,23.03
2017-10-28T08:21:21.137Z,19.73
2017-10-28T08:23:49.374Z,24.07
2017-10-28T08:26:17.621Z,23.73
2017-10-28T08:28:45.354Z,28.67
2017-10-28T08:31:14.323Z,20.03
2017-10-28T08:33:42.573Z,17.33
2017-10-28T08:36:10.137Z,22.87
2017-10-28T08:38:38.406Z,28.13
2017-10-28T08:41:07.402Z,24.53
2017-10-28T08:43:35.545Z,24.43
2017-10-28T08:46:03.030Z,23.23
2017-10-28T08:48:30.500Z,21.10
2017-10-28T08:50:58.007Z,20.73
2017-10-28T08:53:25.514Z,23.83
2017-10-28T08:55:53.919Z,24.87
2017-10-28T08:58:23.663Z,24.97
2017-10-28T09:00:51.155Z,24.67
2017-10-28T09:03:18.642Z,19.20
2017-10-28T09:05:46.285Z,25.03
2017-10-28T09:08:14.816Z,23.50
2017-10-28T09:10:42.302Z,25.97
2017-10-28T09:13:09.930Z,19.33
2017-10-28T09:15:37.534Z,22.10
2017-10-28T09:18:05.093Z,19.20
2017-10-28T09:20:33.655Z,24.30
2017-10-28T09:23:01.343Z,20.80
2017-10-28T09:25:29.610Z,24.87
2017-10-28T09:27:57.362Z,18.67
2017-10-28T09:30:24.869Z,20.60
2017-10-28T09:32:52.355Z,33.53
2017-10-28T09:35:19.930Z,28.97
2017-10-28T09:37:48.164Z,21.57
2017-10-28T09:40:15.658Z,22.60
2017-10-28T09:42:44.093Z,20.90
2017-10-28T09:45:11.560Z,21.43
2017-10-28T09:47:39.290Z,20.17
2017-10-28T09:50:06.965Z,21.03
2017-10-28T09:52:34.461Z,22.13
2017-10-28T09:55:01.974Z,19.90
2017-10-28T09:57:30.362Z,16.53
2017-10-28T09:59:58.635Z,15.90
2017-10-28T10:02:26.159Z,16.03
2017-10-28T10:04:53.879Z,17.03
2017-10-28T10:07:22.151Z,17.20
2017-10-28T10:09:49.621Z,16.23
2017-10-28T10:12:17.313Z,19.03
2017-10-28T10:14:44.937Z,16.73
2017-10-28T10:17:12.565Z,12.77
2017-10-28T10:19:40.211Z,18.07
2017-10-28T10:22:07.848Z,15.60
2017-10-28T10:24:35.351Z,12.37
2017-10-28T10:27:02.937Z,16.73
2017-10-28T10:29:30.430Z,12.80
2017-10-28T10:31:57.905Z,17.53
2017-10-28T10:34:26.241Z,18.60
2017-10-28T10:36:53.756Z,14.90
2017-10-28T10:39:22.146Z,13.57
2017-10-28T10:41:49.718Z,17.17
2017-10-28T10:44:17.203Z,16.53
2017-10-28T10:46:44.751Z,14.43
2017-10-28T10:49:13.130Z,13.63
2017-10-28T10:51:40.751Z,13.80
2017-10-28T10:54:09.080Z,12.47
2017-10-28T10:56:37.481Z,12.90
2017-10-28T10:59:04.976Z,10.17
2017-10-28T11:01:33.569Z,13.17
2017-10-28T11:04:01.132Z,12.67
2017-10-28T11:06:28.594Z,16.03
2017-10-28T11:08:56.366Z,16.67
2017-10-28T11:11:28.207Z,13.83
2017-10-28T11:14:04.680Z,14.63
2017-10-28T11:16:32.409Z,12.50
2017-10-28T11:19:00.946Z,20.97
2017-10-28T11:21:29.280Z,12.23
2017-10-28T11:23:56.931Z,11.73
2017-10-28T11:26:24.427Z,13.27
2017-10-28T11:28:52.773Z,12.20
2017-10-28T11:31:20.256Z,16.60
2017-10-28T11:33:48.017Z,15.10
2017-10-28T11:36:15.831Z,15.07
2017-10-28T11:38:44.137Z,14.67
2017-10-28T11:41:11.700Z,11.53
2017-10-28T11:43:39.169Z,10.93
2017-10-28T11:46:06.660Z,12.53
2017-10-28T11:48:35.016Z,15.03
2017-10-28T11:51:02.490Z,15.60
2017-10-28T11:53:29.970Z,9.20
2017-10-28T11:55:58.459Z,11.27
2017-10-28T11:58:26.008Z,11.60
2017-10-28T12:00:53.479Z,12.60
2017-10-28T12:03:21.071Z,11.47
2017-10-28T12:05:48.531Z,15.60
2017-10-28T12:08:15.999Z,14.57
2017-10-28T12:10:43.549Z,16.00
2017-10-28T12:13:11.262Z,17.50
2017-10-28T12:15:39.507Z,14.93
2017-10-28T12:18:07.398Z,19.50
2017-10-28T12:20:35.052Z,15.10
2017-10-28T12:23:02.551Z,18.17
2017-10-28T12:25:30.480Z,19.40
2017-10-28T12:27:57.947Z,14.90
2017-10-28T12:30:25.412Z,16.30
2017-10-28T12:32:52.952Z,12.70
2017-10-28T12:35:20.570Z,13.33
2017-10-28T12:37:48.052Z,9.13
2017-10-28T12:40:16.477Z,21.57
2017-10-28T12:42:44.865Z,11.17
2017-10-28T12:45:12.411Z,12.70
2017-10-28T12:47:40.877Z,12.77
2017-10-28T12:50:08.472Z,14.33
2017-10-28T12:52:36.001Z,9.80
2017-10-28T12:55:03.664Z,13.03
2017-10-28T12:57:31.579Z,12.47
2017-10-28T12:59:59.882Z,10.23
2017-10-28T13:02:28.174Z,16.50
2017-10-28T13:04:56.004Z,8.90
2017-10-28T13:09:52.159Z,11.87
2017-10-28T13:12:19.842Z,13.27
2017-10-28T13:14:47.341Z,14.23
2017-10-28T13:17:14.833Z,12.83
2017-10-28T13:19:42.564Z,12.87
2017-10-28T13:22:10.202Z,9.33
2017-10-28T13:24:37.724Z,9.50
2017-10-28T13:27:06.054Z,12.43
2017-10-28T13:29:35.055Z,12.97
2017-10-28T13:32:02.599Z,12.00
2017-10-28T13:34:30.513Z,11.20
2017-10-28T13:36:58.758Z,8.40
2017-10-28T13:39:27.253Z,10.00
2017-10-28T13:41:54.884Z,12.17
2017-10-28T13:44:23.153Z,10.70
2017-10-28T13:46:51.463Z,12.87
2017-10-28T13:49:20.359Z,14.03
2017-10-28T13:51:47.946Z,9.17
2017-10-28T13:54:15.545Z,10.87
2017-10-28T13:56:43.530Z,8.77
2017-10-28T13:59:11.028Z,11.17
2017-10-28T14:01:38.520Z,8.73
2017-10-28T14:04:07.329Z,11.20
2017-10-28T14:06:35.766Z,10.23
2017-10-28T14:09:03.257Z,10.73
2017-10-28T14:11:31.258Z,13.73
2017-10-28T14:13:58.766Z,11.60
2017-10-28T14:16:26.273Z,17.63
2017-10-28T14:18:55.146Z,10.33
2017-10-28T14:21:22.674Z,16.17
2017-10-28T14:23:50.183Z,10.90
2017-10-28T14:26:17.737Z,9.73
2017-10-28T14:28:45.346Z,16.33
2017-10-28T14:31:12.827Z,14.93
2017-10-28T14:33:40.402Z,14.27
2017-10-28T14:36:08.742Z,10.33
2017-10-28T14:38:36.236Z,14.50
2017-10-28T14:41:03.730Z,13.50
2017-10-28T14:43:31.285Z,11.30
2017-10-28T14:45:58.772Z,13.83
2017-10-28T14:48:26.389Z,14.20
2017-10-28T14:50:53.900Z,12.13
2017-10-28T14:53:22.135Z,11.67
2017-10-28T14:55:49.722Z,15.43
2017-10-28T14:58:17.285Z,11.07
2017-10-28T15:00:45.532Z,11.93
2017-10-28T15:03:13.054Z,10.47
2017-10-28T15:05:40.516Z,16.37
2017-10-28T15:08:08.078Z,13.40
2017-10-28T15:10:35.691Z,9.80
2017-10-28T15:13:03.943Z,13.77
2017-10-28T15:15:31.540Z,16.83
2017-10-28T15:17:59.795Z,13.10
2017-10-28T15:20:28.087Z,12.70
2017-10-28T15:22:56.555Z,14.13
2017-10-28T15:25:24.150Z,13.50
2017-10-28T15:27:51.706Z,15.23
2017-10-28T15:30:19.193Z,17.50
2017-10-28T15:32:46.774Z,13.57
2017-10-28T15:35:14.237Z,11.20
2017-10-28T15:37:42.578Z,15.33
2017-10-28T15:40:10.045Z,10.93
2017-10-28T15:42:38.310Z,14.43
2017-10-28T15:45:05.882Z,13.80
2017-10-28T15:47:33.363Z,16.83
2017-10-28T15:50:01.248Z,14.53
2017-10-28T15:52:28.796Z,13.33
2017-10-28T15:54:57.111Z,15.73
2017-10-28T15:57:25.043Z,14.17
2017-10-28T15:59:52.663Z,13.70
2017-10-28T16:02:21.129Z,13.57
2017-10-28T16:04:48.651Z,12.27
2017-10-28T16:07:17.018Z,10.33
2017-10-28T16:09:45.467Z,11.90
2017-10-28T16:12:13.741Z,13.20
2017-10-28T16:14:42.100Z,14.33
2017-10-28T16:17:09.581Z,9.60
2017-10-28T16:19:38.262Z,17.53
2017-10-28T16:22:06.625Z,18.97
2017-10-28T16:24:34.128Z,14.43
2017-10-28T16:27:01.638Z,16.57
2017-10-28T16:29:29.913Z,11.33
2017-10-28T16:31:57.371Z,11.40
2017-10-28T16:34:24.884Z,14.53
2017-10-28T16:36:52.379Z,14.97
2017-10-28T16:39:19.902Z,15.73
2017-10-28T16:41:49.183Z,13.20
2017-10-28T16:44:16.712Z,11.20
2017-10-28T16:46:44.213Z,13.83
2017-10-28T16:49:11.681Z,16.67
2017-10-28T16:51:39.226Z,18.70
2017-10-28T16:54:07.480Z,18.93
2017-10-28T16:56:35.032Z,13.30
2017-10-28T16:59:02.502Z,18.37
2017-10-28T17:01:30.018Z,10.20
2017-10-28T17:03:57.498Z,13.63
2017-10-28T17:06:25.762Z,16.17
2017-10-28T17:08:54.018Z,13.60
2017-10-28T17:11:21.644Z,19.77
2017-10-28T17:13:49.898Z,13.03
2017-10-28T17:16:17.440Z,17.17
2017-10-28T17:18:45.718Z,17.67
2017-10-28T17:21:13.281Z,13.20
2017-10-28T17:23:40.784Z,15.53
2017-10-28T17:26:10.136Z,12.73
2017-10-28T17:28:38.414Z,13.20
2017-10-28T17:31:06.192Z,11.63
2017-10-28T17:33:33.792Z,20.30
2017-10-28T17:36:01.318Z,17.07
2017-10-28T17:38:28.846Z,18.60
2017-10-28T17:40:56.340Z,12.30
2017-10-28T17:43:23.919Z,10.40
2017-10-28T17:45:51.406Z,15.33
2017-10-28T17:48:19.769Z,16.17
2017-10-28T17:50:47.597Z,11.60
2017-10-28T17:53:15.945Z,11.70
2017-10-28T17:55:44.085Z,16.27
2017-10-28T17:58:11.692Z,13.60
2017-10-28T18:00:39.861Z,11.70
2017-10-28T18:03:07.456Z,10.23
2017-10-28T18:05:34.951Z,13.70
2017-10-28T18:08:03.511Z,12.53
2017-10-28T18:10:31.873Z,13.17
2017-10-28T18:13:00.270Z,15.13
2017-10-28T18:15:27.812Z,10.37
2017-10-28T18:17:55.328Z,12.90
2017-10-28T18:20:22.812Z,9.70
2017-10-28T18:22:51.596Z,13.50
2017-10-28T18:25:19.122Z,8.80
2017-10-28T18:27:46.818Z,14.67
2017-10-28T18:30:15.164Z,10.33
2017-10-28T18:32:42.653Z,7.20
2017-10-28T18:35:10.213Z,8.40
2017-10-28T18:37:38.513Z,9.50
2017-10-28T18:40:06.079Z,12.10
2017-10-28T18:42:33.618Z,7.70
2017-10-28T18:45:01.973Z,7.60
2017-10-28T18:47:29.468Z,13.03
2017-10-28T18:49:57.222Z,11.70
2017-10-28T18:52:24.728Z,7.53
2017-10-28T18:54:52.290Z,10.53
2017-10-28T18:57:21.152Z,7.80
2017-10-28T18:59:48.724Z,14.20
2017-10-28T19:02:16.334Z,8.87
2017-10-28T19:04:44.025Z,8.57
2017-10-28T19:07:12.713Z,8.23
2017-10-28T19:09:41.329Z,9.00
2017-10-28T19:12:08.958Z,7.27
2017-10-28T19:14:36.487Z,8.40
2017-10-28T19:17:04.755Z,4.97
2017-10-28T19:19:32.546Z,4.87
2017-10-28T19:22:00.016Z,8.93
2017-10-28T19:24:27.507Z,10.50
2017-10-28T19:26:56.364Z,3.90
2017-10-28T19:29:23.853Z,8.80
2017-10-28T19:31:51.390Z,4.90
2017-10-28T19:34:19.062Z,5.10
2017-10-28T19:36:46.545Z,8.33
2017-10-28T19:39:14.033Z,9.13
2017-10-28T19:41:42.043Z,8.40
2017-10-28T19:44:09.518Z,8.40
2017-10-28T19:46:36.992Z,3.50
2017-10-28T19:49:05.409Z,9.87
2017-10-28T19:51:32.908Z,5.77
2017-10-28T19:54:00.481Z,5.57
2017-10-28T19:56:28.622Z,8.67
2017-10-28T19:58:56.101Z,4.73
2017-10-28T20:01:23.613Z,6.17
2017-10-28T20:03:52.066Z,7.10
2017-10-28T20:06:19.585Z,4.53
2017-10-28T20:08:47.054Z,4.73
2017-10-28T20:11:15.108Z,5.23
2017-10-28T20:13:44.115Z,6.83
2017-10-28T20:16:12.351Z,2.90
2017-10-28T20:18:40.005Z,7.37
2017-10-28T20:21:07.504Z,4.90
2017-10-28T20:23:35.036Z,6.87
2017-10-28T20:26:03.542Z,5.90
2017-10-28T20:28:32.343Z,8.80
2017-10-28T20:31:00.736Z,6.37
2017-10-28T20:33:28.649Z,6.27
2017-10-28T20:35:57.025Z,7.83
2017-10-28T20:38:24.517Z,6.93
2017-10-28T20:40:52.010Z,10.07
2017-10-28T20:46:16.472Z,8.83
2017-10-28T20:48:43.974Z,15.40
2017-10-28T20:51:11.465Z,5.70
2017-10-28T20:53:39.722Z,8.50
2017-10-28T20:56:07.243Z,13.07
2017-10-28T20:58:34.722Z,5.80
2017-10-28T21:01:03.314Z,8.50
2017-10-28T21:03:30.785Z,8.00
2017-10-28T21:05:58.413Z,10.07
2017-10-28T21:08:26.399Z,7.20
2017-10-28T21:10:53.982Z,8.97
2017-10-28T21:13:21.492Z,10.00
2017-10-28T21:15:49.008Z,10.27
2017-10-28T21:18:16.552Z,10.33
2017-10-28T21:20:44.033Z,7.77
2017-10-28T21:23:11.531Z,6.90
2017-10-28T21:25:39.002Z,9.90
2017-10-28T21:28:06.480Z,9.00
2017-10-28T21:30:34.855Z,10.03
2017-10-28T21:33:04.144Z,8.50
2017-10-28T21:35:31.775Z,11.37
2017-10-28T21:37:59.243Z,7.50
2017-10-28T21:40:26.752Z,12.43
2017-10-28T21:42:54.997Z,10.70
2017-10-28T21:45:22.510Z,11.13
2017-10-28T21:47:49.978Z,8.10
2017-10-28T21:50:17.649Z,7.90
2017-10-28T21:52:46.079Z,10.43
2017-10-28T21:55:13.545Z,7.23
2017-10-28T21:57:41.858Z,9.23
2017-10-28T22:00:10.228Z,11.37
2017-10-28T22:02:37.852Z,9.70
2017-10-28T22:05:05.302Z,6.40
2017-10-28T22:07:33.270Z,11.23
2017-10-28T22:10:00.839Z,8.80
2017-10-28T22:12:28.305Z,9.30
2017-10-28T22:14:56.953Z,10.07
2017-10-28T22:17:24.415Z,11.93
2017-10-28T22:19:51.905Z,7.13
2017-10-28T22:22:20.229Z,7.97
2017-10-28T22:24:47.693Z,4.70
2017-10-28T22:27:15.912Z,6.53
2017-10-28T22:29:43.379Z,9.60
2017-10-28T22:32:11.633Z,10.13
2017-10-28T22:34:39.092Z,9.27
2017-10-28T22:37:06.582Z,6.93
2017-10-28T22:39:34.135Z,10.47
2017-10-28T22:42:01.636Z,8.80
2017-10-28T22:44:29.123Z,13.10
2017-10-28T22:46:56.620Z,11.43
2017-10-28T22:49:24.097Z,8.67
2017-10-28T22:51:51.581Z,10.10
2017-10-28T22:54:19.038Z,8.57
2017-10-28T22:56:47.297Z,8.23
2017-10-28T22:59:14.888Z,10.73
2017-10-28T23:01:42.360Z,12.80
2017-10-28T23:04:09.847Z,1.83
2017-10-28T23:06:38.197Z,5.43
2017-10-28T23:09:05.657Z,7.10
2017-10-28T23:11:33.881Z,0.83
2017-10-28T23:14:01.389Z,10.50
2017-10-28T23:16:29.633Z,10.00
2017-10-28T23:18:57.999Z,1.80
2017-10-28T23:21:25.479Z,3.37
2017-10-28T23:23:52.930Z,11.17
2017-10-28T23:26:20.413Z,12.10
2017-10-28T23:28:48.648Z,3.20
2017-10-28T23:31:16.135Z,4.03
2017-10-28T23:33:43.625Z,3.23
2017-10-28T23:36:11.088Z,9.83
2017-10-28T23:38:38.540Z,5.30
2017-10-28T23:41:06.017Z,15.93
2017-10-28T23:43:33.485Z,16.37
2017-10-28T23:46:01.219Z,11.93
2017-10-28T23:48:28.871Z,11.37
2017-10-28T23:50:56.344Z,11.63
2017-10-28T23:53:23.803Z,12.80
2017-10-28T23:55:51.394Z,12.67
2017-10-28T23:58:19.639Z,15.10
